Time;durP1;ratioP1;P1;durP2;ratioP2;P2;SDS_P1;SDS_P2;PMS_P1;PMS_P2;Temp;Humidity;BMP_temperature;BMP_pressure;BME280_temperature;BME280_humidity;BME280_pressure;Samples;Min_cycle;Max_cycle;Signal;HPM_P1;HPM_P2
2022/10/28 00:02:00;;;;;;;8.75;4.70;;;;;;;22.48;42.22;96164.56;5064255;28;20043;-64
2022/10/28 00:04:25;;;;;;;5.15;3.55;;;;;;;22.51;41.95;96162.84;5065660;28;20400;-64
2022/10/28 00:06:51;;;;;;;7.20;4.10;;;;;;;19.87;41.85;95768.69;5065195;28;20056;-65
2022/10/28 00:09:16;;;;;;;9.00;4.00;;;;;;;22.49;42.07;96168.03;5065726;28;20045;-64
2022/10/28 00:11:42;;;;;;;5.10;3.10;;;;;;;19.00;41.61;95647.91;5066786;28;20033;-66
2022/10/28 00:14:08;;;;;;;4.93;3.50;;;;;;;22.37;42.26;96152.03;5064830;28;20052;-64
2022/10/28 00:16:34;;;;;;;5.88;3.80;;;;;;;22.46;42.24;96160.81;5047876;28;20029;-62
2022/10/28 00:19:00;;;;;;;6.55;4.00;;;;;;;22.46;42.27;96166.25;5034470;28;20040;-65
2022/10/28 00:21:30;;;;;;;6.00;3.70;;;;;;;22.21;42.11;96161.47;5052097;28;20062;-65
2022/10/28 00:23:56;;;;;;;6.20;3.47;;;;;;;22.40;42.16;96151.81;5051661;28;20045;-65
2022/10/28 00:26:29;;;;;;;6.22;3.70;;;;;;;22.45;42.23;96153.88;5068457;28;20543;-65
2022/10/28 00:28:57;;;;;;;4.82;3.50;;;;;;;22.44;42.45;96155.09;5045256;28;20051;-63
2022/10/28 00:31:24;;;;;;;6.22;3.65;;;;;;;22.43;42.13;96156.31;5027816;28;20036;-64
2022/10/28 00:33:50;;;;;;;6.20;3.65;;;;;;;22.45;42.56;96164.75;5043534;28;20477;-65
2022/10/28 00:36:23;;;;;;;5.20;3.63;;;;;;;20.97;42.23;95930.03;5041521;28;20138;-64
2022/10/28 00:38:49;;;;;;;6.65;3.30;;;;;;;22.13;42.22;96111.34;5046531;28;20050;-63
2022/10/28 00:41:17;;;;;;;6.82;4.18;;;;;;;22.43;42.41;96157.09;5030159;28;20064;-67
2022/10/28 00:43:46;;;;;;;5.53;3.47;;;;;;;22.43;42.44;96159.03;5013750;28;20032;-65
2022/10/28 00:46:19;;;;;;;6.00;3.63;;;;;;;22.43;42.30;96156.31;5047292;28;20028;-65
2022/10/28 00:48:48;;;;;;;6.50;3.50;;;;;;;20.96;42.15;95945.56;5062718;28;20489;-65
2022/10/28 00:51:13;;;;;;;6.05;3.50;;;;;;;22.42;42.45;96150.13;5032826;28;20081;-65
2022/10/28 00:53:39;;;;;;;4.25;3.00;;;;;;;22.37;42.39;96152.78;5052501;28;20049;-66
2022/10/28 00:56:05;;;;;;;6.07;3.58;;;;;;;22.40;42.16;96153.81;5045247;28;20090;-63
2022/10/28 00:58:30;;;;;;;5.65;3.65;;;;;;;22.34;42.27;96142.84;5057257;28;20024;-63
2022/10/28 01:00:56;;;;;;;6.05;3.70;;;;;;;19.80;42.10;95772.47;5013766;28;20053;-64
2022/10/28 01:03:21;;;;;;;6.65;3.67;;;;;;;22.19;42.33;96135.94;5064391;28;20619;-65
2022/10/28 01:05:47;;;;;;;6.43;3.50;;;;;;;22.38;42.56;96154.28;5045871;28;20045;-65
2022/10/28 01:08:12;;;;;;;4.30;2.80;;;;;;;22.38;42.30;96154.28;5036505;28;20140;-62
2022/10/28 01:10:56;;;;;;;5.65;3.50;;;;;;;22.38;42.42;96148.09;5025005;28;20033;-65
2022/10/28 01:13:35;;;;;;;5.00;3.22;;;;;;;22.37;42.16;96158.22;5053511;28;20052;-65
2022/10/28 01:16:09;;;;;;;5.60;3.78;;;;;;;22.37;42.30;96152.78;5041177;28;20044;-64
2022/10/28 01:18:35;;;;;;;6.93;3.80;;;;;;;22.36;42.59;96172.31;5040913;28;20045;-65
2022/10/28 01:21:28;;;;;;;5.85;3.70;;;;;;;22.34;42.55;96152.97;5054411;28;20563;-65
2022/10/28 01:23:56;;;;;;;5.30;3.40;;;;;;;22.37;42.29;96152.78;5064361;28;20079;-63
2022/10/28 01:26:46;;;;;;;6.43;3.65;;;;;;;21.92;42.83;96090.78;5050388;28;20047;-66
2022/10/28 01:29:48;;;;;;;5.40;3.25;;;;;;;22.34;42.24;96159.16;5024003;28;20103;-63
2022/10/28 01:32:35;;;;;;;5.35;3.30;;;;;;;22.33;42.42;96141.34;5053454;28;20162;-65
2022/10/28 01:35:34;;;;;;;5.07;3.40;;;;;;;22.34;42.50;96153.72;5037903;28;20495;-64
2022/10/28 01:38:37;;;;;;;4.95;3.40;;;;;;;22.33;42.41;96156.91;5034341;28;20074;-66
2022/10/28 01:41:06;;;;;;;4.07;3.00;;;;;;;22.26;42.36;96147.19;5022230;28;20067;-66
2022/10/28 01:43:44;;;;;;;5.57;3.53;;;;;;;22.32;42.65;96156.19;5046636;28;20048;-65
2022/10/28 01:46:16;;;;;;;4.60;3.20;;;;;;;22.32;42.63;96161.63;5035534;28;20028;-66
2022/10/28 01:48:59;;;;;;;5.03;3.55;;;;;;;22.32;42.89;96155.44;5012167;28;20057;-66
2022/10/28 01:51:34;;;;;;;5.35;3.20;;;;;;;22.05;42.58;96120.41;5008487;28;20526;-66
2022/10/28 01:54:00;;;;;;;6.82;3.83;;;;;;;22.11;42.43;96168.22;5038572;28;20119;-64
2022/10/28 01:56:29;;;;;;;5.32;3.05;;;;;;;22.08;42.22;96136.53;5025239;28;20056;-65
2022/10/28 01:58:55;;;;;;;4.35;3.10;;;;;;;22.09;42.63;96134.53;5009199;28;20123;-64
2022/10/28 02:01:20;;;;;;;4.57;2.90;;;;;;;22.24;42.52;96163.25;5042454;28;20033;-67
2022/10/28 02:03:46;;;;;;;6.38;3.17;;;;;;;22.29;42.54;96168.00;5042759;28;21153;-62
2022/10/28 02:06:16;;;;;;;4.97;3.10;;;;;;;22.29;42.53;96159.84;5041966;28;20555;-66
2022/10/28 02:09:07;;;;;;;6.05;3.28;;;;;;;22.28;42.57;96165.78;5042085;28;20199;-65
2022/10/28 02:11:35;;;;;;;5.72;2.80;;;;;;;21.47;42.73;96044.41;5032666;28;20105;-66
2022/10/28 02:14:06;;;;;;;4.93;2.78;;;;;;;22.27;42.77;96156.88;5043640;28;20448;-65
2022/10/28 02:16:53;;;;;;;5.15;3.13;;;;;;;22.26;42.56;96168.97;5043274;28;20033;-65
2022/10/28 02:19:46;;;;;;;4.63;3.00;;;;;;;20.79;42.70;95934.91;5043168;28;20529;-64
2022/10/28 02:22:29;;;;;;;5.13;3.17;;;;;;;21.04;42.62;96000.97;5043525;28;20053;-64
2022/10/28 02:24:58;;;;;;;5.13;2.88;;;;;;;22.26;42.70;96162.78;5042004;28;20057;-66
2022/10/28 02:27:38;;;;;;;4.38;3.08;;;;;;;22.26;42.58;96190.72;5042481;28;20033;-66
2022/10/28 02:30:05;;;;;;;5.20;2.70;;;;;;;22.23;42.75;96156.31;5030384;28;20056;-63
2022/10/28 02:32:32;;;;;;;4.47;2.67;;;;;;;22.25;42.66;96164.72;5025224;28;20044;-64
2022/10/28 02:34:58;;;;;;;4.25;2.90;;;;;;;22.23;42.36;96169.91;5024954;28;20501;-63
2022/10/28 02:37:27;;;;;;;4.32;3.03;;;;;;;22.07;42.55;96140.47;5041782;28;20046;-65
2022/10/28 02:39:55;;;;;;;4.53;2.90;;;;;;;22.24;42.84;96173.38;5033359;28;20579;-65
2022/10/28 02:42:26;;;;;;;6.22;3.30;;;;;;;22.19;42.72;96174.75;5025020;28;20468;-64
2022/10/28 02:44:56;;;;;;;3.78;2.55;;;;;;;22.22;42.67;96179.28;5025688;28;20064;-65
2022/10/28 02:47:23;;;;;;;4.97;2.92;;;;;;;21.96;42.79;96143.03;5008674;28;20063;-63
2022/10/28 02:49:51;;;;;;;4.18;2.88;;;;;;;22.22;42.65;96179.28;5020715;28;20116;-66
2022/10/28 02:52:16;;;;;;;4.82;2.63;;;;;;;22.20;42.87;96176.25;5009442;28;20118;-63
2022/10/28 02:54:44;;;;;;;4.65;2.53;;;;;;;21.89;42.83;96163.69;5029677;28;20053;-64
2022/10/28 02:57:18;;;;;;;3.95;2.95;;;;;;;22.18;42.59;96172.50;5024371;28;20103;-65
2022/10/28 03:00:13;;;;;;;5.22;3.17;;;;;;;22.20;42.80;96176.25;5025629;28;20094;-65
2022/10/28 03:02:39;;;;;;;5.25;2.97;;;;;;;22.19;42.27;96182.91;5039018;28;20056;-61
2022/10/28 03:05:04;;;;;;;5.35;2.80;;;;;;;21.97;42.78;96152.69;5043509;28;20041;-63
2022/10/28 03:07:30;;;;;;;5.20;2.83;;;;;;;20.99;42.43;96015.22;5007855;28;20131;-64
2022/10/28 03:09:55;;;;;;;3.97;2.70;;;;;;;22.17;42.46;96198.22;5043377;28;20036;-65
2022/10/28 03:12:21;;;;;;;4.75;2.88;;;;;;;22.16;42.75;96175.69;5040945;28;20055;-66
2022/10/28 03:14:46;;;;;;;3.80;2.78;;;;;;;22.15;43.09;96166.06;5042750;28;20036;-62
2022/10/28 03:17:11;;;;;;;4.55;2.90;;;;;;;22.13;42.89;96160.31;5040972;28;20561;-65
2022/10/28 03:19:37;;;;;;;5.25;3.42;;;;;;;22.16;42.93;96191.28;5042279;28;20510;-65
2022/10/28 03:22:02;;;;;;;4.47;2.72;;;;;;;22.16;42.88;96174.97;5058352;28;20036;-65
2022/10/28 03:24:28;;;;;;;4.85;3.13;;;;;;;22.14;42.56;96167.28;5042296;28;20052;-66
2022/10/28 03:26:53;;;;;;;3.65;2.85;;;;;;;20.55;42.42;95936.97;5040985;28;20052;-65
2022/10/28 03:29:19;;;;;;;4.20;2.78;;;;;;;22.09;42.74;96165.22;5042765;28;20512;-61
2022/10/28 03:31:45;;;;;;;4.60;2.60;;;;;;;21.89;42.83;96188.16;5057540;28;20036;-64
2022/10/28 03:34:10;;;;;;;4.22;2.60;;;;;;;21.92;42.82;96132.81;5041337;28;20040;-66
2022/10/28 03:36:36;;;;;;;3.80;2.50;;;;;;;22.02;42.89;96160.16;5023986;28;20103;-66
2022/10/28 03:39:01;;;;;;;3.70;2.72;;;;;;;22.12;42.75;96169.72;5042801;28;20497;-65
2022/10/28 03:41:27;;;;;;;4.25;2.97;;;;;;;22.11;42.67;96181.81;5042410;28;20535;-63
2022/10/28 03:43:52;;;;;;;4.00;2.63;;;;;;;22.00;42.71;96189.81;5024663;28;20044;-66
2022/10/28 03:46:18;;;;;;;4.55;2.97;;;;;;;22.10;42.76;96183.03;5042457;28;20064;-65
2022/10/28 03:48:43;;;;;;;4.32;2.90;;;;;;;22.11;42.96;96184.53;5042064;28;20579;-67
2022/10/28 03:51:08;;;;;;;3.90;2.80;;;;;;;22.07;42.79;96210.44;5043312;28;20047;-66
2022/10/28 03:53:34;;;;;;;4.65;2.83;;;;;;;22.10;42.82;96177.59;5058891;28;20047;-63
2022/10/28 03:56:00;;;;;;;4.00;2.75;;;;;;;19.51;42.58;95790.66;5031497;28;20056;-64
2022/10/28 03:58:26;;;;;;;4.32;2.85;;;;;;;21.78;42.77;96133.59;5035375;28;20032;-66
2022/10/28 04:00:51;;;;;;;4.55;2.90;;;;;;;22.09;42.90;96176.13;5041949;28;20037;-63
2022/10/28 04:03:17;;;;;;;3.70;2.63;;;;;;;22.09;42.73;96181.56;5056574;28;20746;-65
2022/10/28 04:05:42;;;;;;;4.30;2.90;;;;;;;22.08;42.80;96180.03;5054827;28;20041;-67
2022/10/28 04:08:08;;;;;;;4.45;2.83;;;;;;;22.07;43.30;96186.69;5034299;28;20040;-65
2022/10/28 04:10:33;;;;;;;4.50;2.97;;;;;;;22.09;42.88;96184.28;5065470;28;20043;-65
2022/10/28 04:13:02;;;;;;;5.40;2.42;;;;;;;22.03;42.73;96178.00;5048020;28;20078;-64
2022/10/28 04:15:28;;;;;;;4.63;3.08;;;;;;;21.92;43.01;96181.78;5029726;28;20040;-65
2022/10/28 04:17:53;;;;;;;4.13;2.80;;;;;;;22.05;42.92;96186.44;5028417;28;20044;-65
2022/10/28 04:20:19;;;;;;;3.58;2.50;;;;;;;22.06;42.95;96187.94;5047845;28;20059;-66
2022/10/28 04:22:44;;;;;;;4.22;2.70;;;;;;;22.06;42.87;96185.22;5047506;28;20032;-63
2022/10/28 04:25:10;;;;;;;4.20;2.78;;;;;;;22.06;42.59;96187.94;5064373;28;20420;-63
2022/10/28 04:27:35;;;;;;;3.97;2.58;;;;;;;22.05;42.79;96186.44;5057936;28;20049;-66
2022/10/28 04:30:01;;;;;;;3.58;2.67;;;;;;;21.76;42.92;96153.09;5069218;28;20180;-63
2022/10/28 04:32:26;;;;;;;3.88;2.50;;;;;;;22.04;42.79;96189.63;5023875;28;20061;-66
2022/10/28 04:34:52;;;;;;;4.18;2.45;;;;;;;22.03;42.79;96188.88;5039794;28;20467;-66
2022/10/28 04:37:17;;;;;;;3.67;2.60;;;;;;;22.02;42.76;96192.81;5034607;28;20087;-67
2022/10/28 04:39:42;;;;;;;3.72;2.72;;;;;;;22.04;42.81;96195.81;5018547;28;20098;-66
2022/10/28 04:42:08;;;;;;;3.85;2.63;;;;;;;22.02;42.89;96187.38;5029456;28;20410;-67
2022/10/28 04:44:33;;;;;;;4.43;2.75;;;;;;;22.02;43.11;96189.34;5064862;28;20472;-66
2022/10/28 04:46:59;;;;;;;4.88;2.65;;;;;;;22.01;42.99;96183.16;5050044;28;20049;-67
2022/10/28 04:49:24;;;;;;;3.40;2.80;;;;;;;18.44;42.43;95656.16;5054820;28;20047;-65
2022/10/28 04:51:50;;;;;;;4.32;3.30;;;;;;;22.02;42.64;96187.38;5054257;28;20500;-67
2022/10/28 04:54:15;;;;;;;4.57;2.97;;;;;;;22.02;42.87;96181.94;5046491;28;20048;-67
2022/10/28 04:56:41;;;;;;;3.55;2.45;;;;;;;22.01;43.07;96210.34;5064086;28;20048;-65
2022/10/28 04:59:06;;;;;;;3.45;2.60;;;;;;;21.99;42.86;96185.59;5064443;28;20052;-65
2022/10/28 05:01:31;;;;;;;4.45;2.80;;;;;;;18.12;42.46;95608.28;5064209;28;20440;-68
2022/10/28 05:03:57;;;;;;;3.95;2.80;;;;;;;21.04;42.65;96055.28;5064799;28;20558;-69
2022/10/28 05:06:22;;;;;;;4.28;2.78;;;;;;;20.34;42.59;95937.34;5064267;28;20429;-67
2022/10/28 05:08:48;;;;;;;4.78;2.70;;;;;;;21.69;42.70;96136.44;5064795;28;20102;-66
2022/10/28 05:11:13;;;;;;;3.58;2.40;;;;;;;22.08;42.80;96190.19;5063509;28;20036;-67
2022/10/28 05:13:39;;;;;;;3.60;2.50;;;;;;;22.07;42.74;96183.25;5045175;28;20504;-66
2022/10/28 05:16:05;;;;;;;3.72;2.70;;;;;;;22.09;43.01;96187.00;5046120;28;20033;-68
2022/10/28 05:18:30;;;;;;;5.03;2.83;;;;;;;20.45;42.92;95943.72;5046475;28;20049;-68
2022/10/28 05:20:55;;;;;;;4.97;2.65;;;;;;;22.15;42.80;96190.53;5044953;28;20044;-65
2022/10/28 05:23:21;;;;;;;4.28;2.58;;;;;;;22.18;43.16;96199.72;5046359;28;20036;-64
2022/10/28 05:25:47;;;;;;;4.45;3.00;;;;;;;22.18;43.16;96211.38;5058888;28;20029;-65
2022/10/28 05:28:13;;;;;;;4.65;3.00;;;;;;;22.34;42.97;96208.16;5028308;28;20032;-67
2022/10/28 05:30:38;;;;;;;4.68;2.90;;;;;;;22.37;43.16;96201.03;5064293;28;20063;-66
2022/10/28 05:33:04;;;;;;;5.65;3.20;;;;;;;22.34;43.18;96208.16;5064191;28;20075;-66
2022/10/28 05:35:29;;;;;;;5.50;2.88;;;;;;;22.05;43.30;96164.66;5045255;28;20509;-67
2022/10/28 05:37:55;;;;;;;4.22;2.38;;;;;;;22.33;43.50;96212.13;5063310;28;20130;-68
2022/10/28 05:40:20;;;;;;;4.70;2.78;;;;;;;22.40;43.27;96211.69;5063657;28;20032;-71
2022/10/28 05:42:46;;;;;;;6.40;2.90;;;;;;;22.39;43.51;96215.66;5062104;28;20048;-68
2022/10/28 05:45:11;;;;;;;6.10;2.80;;;;;;;22.40;43.34;96217.16;5027497;28;20048;-70
2022/10/28 05:47:44;;;;;;;4.88;2.65;;;;;;;22.49;43.22;96219.75;5046254;28;20056;-69
2022/10/28 05:50:10;;;;;;;5.38;2.90;;;;;;;21.16;42.86;95991.78;5027719;28;20053;-66
2022/10/28 05:52:35;;;;;;;4.40;2.85;;;;;;;22.56;43.33;96219.38;5027136;28;20041;-68
2022/10/28 05:55:01;;;;;;;4.82;2.65;;;;;;;22.55;43.29;96223.28;5028806;28;20032;-65
2022/10/28 05:57:26;;;;;;;5.00;3.05;;;;;;;22.53;43.42;96220.31;5060890;28;20040;-66
2022/10/28 05:59:52;;;;;;;6.95;3.10;;;;;;;22.43;43.31;96210.75;5062894;28;20146;-65
2022/10/28 06:02:17;;;;;;;4.70;2.75;;;;;;;22.35;43.60;96192.59;5045277;28;20052;-62
2022/10/28 06:04:43;;;;;;;5.43;2.75;;;;;;;22.78;42.66;96225.09;5056807;28;20025;-63
2022/10/28 06:07:08;;;;;;;6.03;2.95;;;;;;;19.49;42.34;95717.25;5066653;28;20075;-67
2022/10/28 06:09:34;;;;;;;5.95;2.97;;;;;;;22.81;42.92;96222.19;5061926;28;20540;-64
2022/10/28 06:11:59;;;;;;;7.25;2.75;;;;;;;22.75;42.88;96242.38;5044739;28;20499;-69
2022/10/28 06:14:24;;;;;;;6.10;3.17;;;;;;;21.00;42.42;95951.56;5063657;28;20041;-66
2022/10/28 06:16:50;;;;;;;4.43;3.00;;;;;;;22.91;42.58;96240.63;5062807;28;20045;-65
2022/10/28 06:19:15;;;;;;;4.72;3.15;;;;;;;22.88;42.42;96245.53;5062443;28;20028;-63
2022/10/28 06:21:41;;;;;;;4.80;2.60;;;;;;;22.93;42.36;96246.38;5057616;28;20078;-66
2022/10/28 06:24:07;;;;;;;5.95;3.40;;;;;;;22.95;42.62;96246.63;5044510;28;20081;-64
2022/10/28 06:26:33;;;;;;;4.13;2.88;;;;;;;22.98;42.12;96251.13;5027455;28;20127;-66
2022/10/28 06:28:58;;;;;;;4.75;2.90;;;;;;;23.01;42.41;96255.63;5044069;28;20428;-66
2022/10/28 06:31:24;;;;;;;4.55;2.95;;;;;;;23.10;42.42;96258.22;5062869;28;20035;-64
2022/10/28 06:33:49;;;;;;;6.60;3.15;;;;;;;23.11;41.71;96257.00;5061750;28;20033;-65
2022/10/28 06:36:14;;;;;;;5.32;3.17;;;;;;;23.04;42.01;96254.69;5061943;28;20509;-64
2022/10/28 06:38:40;;;;;;;6.40;3.20;;;;;;;23.00;42.30;96251.44;5061693;28;20612;-64
2022/10/28 06:41:05;;;;;;;5.32;3.25;;;;;;;22.99;41.96;96258.09;5061627;28;20036;-65
2022/10/28 06:43:31;;;;;;;5.35;3.33;;;;;;;22.92;42.01;96253.00;5062041;28;20032;-63
2022/10/28 06:46:00;;;;;;;6.15;3.10;;;;;;;22.89;42.31;96253.97;5044113;28;20025;-63
2022/10/28 06:48:25;;;;;;;4.10;2.97;;;;;;;22.97;42.32;96255.09;5027210;28;20044;-65
2022/10/28 06:50:54;;;;;;;7.43;3.40;;;;;;;22.95;41.88;96235.75;5061958;28;20040;-63
2022/10/28 06:53:19;;;;;;;5.70;3.35;;;;;;;23.03;41.88;96247.75;5045407;28;20048;-66
2022/10/28 06:55:56;;;;;;;6.60;3.35;;;;;;;22.91;42.23;96251.53;5041344;28;20126;-64
2022/10/28 06:58:22;;;;;;;5.47;3.38;;;;;;;22.87;42.27;96249.47;5029701;28;20489;-64
2022/10/28 07:00:48;;;;;;;4.72;3.13;;;;;;;22.89;42.26;96240.34;5044521;28;20040;-63
2022/10/28 07:03:13;;;;;;;5.95;3.13;;;;;;;22.82;42.37;96271.94;5044821;28;20036;-64
2022/10/28 07:05:39;;;;;;;6.15;3.55;;;;;;;22.54;41.89;96200.78;5060493;28;20160;-62
2022/10/28 07:08:04;;;;;;;5.93;3.35;;;;;;;22.28;41.87;96193.72;5062606;28;20816;-65
2022/10/28 07:10:30;;;;;;;11.60;6.53;;;;;;;22.55;39.12;96234.19;5043878;28;20519;-64
2022/10/28 07:12:55;;;;;;;13.50;7.07;;;;;;;22.36;38.88;96248.50;5044598;28;20677;-64
2022/10/28 07:15:21;;;;;;;14.07;7.03;;;;;;;22.17;39.47;96260.81;5044518;28;20144;-62
2022/10/28 07:17:53;;;;;;;13.10;6.68;;;;;;;21.58;40.99;96255.81;5062652;28;20155;-63
2022/10/28 07:20:19;;;;;;;9.90;5.72;;;;;;;22.30;40.63;96251.16;5044234;28;20540;-64
2022/10/28 07:22:44;;;;;;;14.18;5.88;;;;;;;22.46;40.46;96258.81;5044379;28;20025;-65
2022/10/28 07:25:10;;;;;;;11.40;5.35;;;;;;;22.75;40.56;96251.31;5044696;28;20074;-62
2022/10/28 07:27:35;;;;;;;10.52;5.10;;;;;;;22.79;40.80;96253.81;5043327;28;20052;-65
2022/10/28 07:30:01;;;;;;;11.30;4.43;;;;;;;22.85;40.70;96251.91;5044723;28;20072;-63
2022/10/28 07:32:30;;;;;;;12.52;4.70;;;;;;;22.81;41.28;96235.03;5062446;28;20048;-64
2022/10/28 07:34:56;;;;;;;9.88;4.55;;;;;;;22.88;42.15;96252.47;5043655;28;20048;-61
2022/10/28 07:37:21;;;;;;;12.05;4.75;;;;;;;22.75;42.39;96270.38;5032051;28;20126;-65
2022/10/28 07:39:47;;;;;;;7.95;4.43;;;;;;;22.71;42.49;96263.63;5068860;28;20048;-63
2022/10/28 07:42:12;;;;;;;8.48;4.40;;;;;;;22.65;42.62;96254.63;5068493;28;20117;-66
2022/10/28 07:44:38;;;;;;;10.32;4.43;;;;;;;22.31;42.77;96225.44;5065727;28;20090;-65
2022/10/28 07:47:03;;;;;;;10.38;4.50;;;;;;;22.47;42.71;96227.66;5066324;28;20049;-65
2022/10/28 07:49:29;;;;;;;8.88;4.32;;;;;;;22.59;42.77;96253.81;5065925;28;20135;-66
2022/10/28 07:51:54;;;;;;;10.90;4.65;;;;;;;22.60;42.76;96247.13;5048106;28;20478;-65
2022/10/28 07:54:20;;;;;;;7.07;4.03;;;;;;;22.57;43.27;96248.84;5047658;28;20218;-64
2022/10/28 07:56:45;;;;;;;9.38;4.40;;;;;;;22.56;42.97;96241.88;5064483;28;20826;-65
2022/10/28 07:59:11;;;;;;;9.32;4.28;;;;;;;22.57;42.60;96245.34;5047937;28;20044;-65
2022/10/28 08:01:36;;;;;;;6.53;4.18;;;;;;;22.56;43.00;96246.59;5055953;28;20040;-62
2022/10/28 08:04:02;;;;;;;7.65;4.15;;;;;;;22.54;43.23;96249.00;5055931;28;20397;-65
2022/10/28 08:06:27;;;;;;;7.45;4.03;;;;;;;22.56;42.95;96247.31;5052414;28;20681;-64
2022/10/28 08:08:53;;;;;;;7.43;4.05;;;;;;;22.24;42.92;96193.19;5065822;28;20040;-63
2022/10/28 08:11:19;;;;;;;9.68;4.85;;;;;;;22.56;42.89;96246.59;5031291;28;20068;-64
2022/10/28 08:13:45;;;;;;;6.85;4.40;;;;;;;22.56;42.90;96290.13;5065565;28;20039;-64
2022/10/28 08:16:11;;;;;;;7.30;4.32;;;;;;;22.58;43.01;96244.13;5048130;28;20098;-65
2022/10/28 08:18:37;;;;;;;7.93;3.92;;;;;;;22.56;43.17;96247.31;5047704;28;20029;-64
2022/10/28 08:21:03;;;;;;;7.90;4.32;;;;;;;22.59;42.82;96245.63;5065426;28;20444;-65
2022/10/28 08:23:28;;;;;;;6.72;4.43;;;;;;;22.39;43.07;96215.66;5047414;28;20135;-66
2022/10/28 08:25:54;;;;;;;5.82;3.97;;;;;;;21.68;43.00;96105.03;5063462;28;20052;-63
2022/10/28 08:28:20;;;;;;;9.48;4.50;;;;;;;22.43;43.11;96221.66;5066619;28;20029;-63
2022/10/28 08:30:45;;;;;;;6.38;3.65;;;;;;;22.63;42.45;96246.16;5048767;28;20068;-65
2022/10/28 08:33:11;;;;;;;7.75;3.90;;;;;;;22.63;42.57;96243.44;5047104;28;20036;-65
2022/10/28 08:35:37;;;;;;;6.38;4.00;;;;;;;22.63;42.62;96252.38;5027185;28;20041;-64
2022/10/28 08:38:02;;;;;;;7.93;4.20;;;;;;;22.61;42.89;96237.72;5030887;28;20830;-64
2022/10/28 08:40:35;;;;;;;7.55;4.00;;;;;;;22.52;42.73;96246.03;5044344;28;20040;-63
2022/10/28 08:43:09;;;;;;;7.20;3.83;;;;;;;21.56;42.39;96068.03;5031210;28;20051;-64
2022/10/28 08:45:58;;;;;;;6.13;4.20;;;;;;;22.72;42.50;96248.78;5016011;28;20696;-64
2022/10/28 08:48:30;;;;;;;6.40;4.00;;;;;;;22.72;42.36;96233.19;5048750;28;20090;-65
2022/10/28 08:51:00;;;;;;;6.80;3.90;;;;;;;22.79;42.30;96249.13;5046766;28;20044;-63
2022/10/28 08:53:46;;;;;;;7.13;4.38;;;;;;;21.86;41.90;96083.78;5030290;28;20056;-63
2022/10/28 08:56:24;;;;;;;5.70;3.67;;;;;;;22.88;42.00;96230.69;5030459;28;20043;-63
2022/10/28 08:58:53;;;;;;;6.80;4.38;;;;;;;22.74;41.86;96213.66;5047335;28;20515;-64
2022/10/28 09:01:23;;;;;;;6.53;4.00;;;;;;;22.99;42.17;96236.28;5063863;28;20020;-65
2022/10/28 09:03:49;;;;;;;;;;;;;;;23.02;41.62;96232.63;5046737;28;20132;-65
2022/10/28 09:06:15;;;;;;;7.15;4.53;;;;;;;23.01;42.20;96222.94;5045933;28;20011;-63
2022/10/28 09:08:42;;;;;;;6.57;4.03;;;;;;;23.03;41.81;96225.94;5046940;28;20532;-64
2022/10/28 09:11:10;;;;;;;8.00;4.65;;;;;;;23.06;41.95;96225.00;5030011;28;20492;-64
2022/10/28 09:14:14;;;;;;;5.68;4.50;;;;;;;23.06;41.67;96216.81;5064459;28;20178;-61
2022/10/28 09:17:02;;;;;;;8.43;4.15;;;;;;;23.03;41.79;96242.28;5064640;28;20053;-63
2022/10/28 09:19:46;;;;;;;6.60;3.92;;;;;;;23.13;42.05;96212.94;5046369;28;20667;-66
2022/10/28 09:22:24;;;;;;;7.38;4.18;;;;;;;23.16;42.02;96217.41;5063113;28;20145;-64
2022/10/28 09:25:01;;;;;;;6.70;4.05;;;;;;;23.03;41.73;96185.09;5062568;28;20063;-63
2022/10/28 09:27:51;;;;;;;7.47;4.15;;;;;;;23.20;41.75;96196.13;5027970;28;20040;-64
2022/10/28 09:30:45;;;;;;;6.00;3.92;;;;;;;23.24;41.61;96200.16;5063188;28;20040;-63
2022/10/28 09:33:39;;;;;;;7.95;4.30;;;;;;;23.33;41.91;96197.28;5063336;28;20127;-64
2022/10/28 09:36:06;;;;;;;7.43;4.00;;;;;;;23.27;41.35;96166.50;5055311;28;20115;-63
2022/10/28 09:38:38;;;;;;;6.57;3.92;;;;;;;23.38;41.79;96180.25;5028217;28;20190;-63
2022/10/28 09:41:09;;;;;;;6.93;3.83;;;;;;;23.39;41.47;96200.81;5044591;28;20472;-64
2022/10/28 09:43:36;;;;;;;7.07;4.00;;;;;;;23.45;41.17;96190.72;5057958;28;20385;-61
2022/10/28 09:46:09;;;;;;;6.57;4.00;;;;;;;23.46;41.47;96170.41;5026365;28;20051;-61
2022/10/28 09:48:36;;;;;;;5.55;4.13;;;;;;;23.63;41.06;96168.56;5028504;28;20052;-62
2022/10/28 09:51:02;;;;;;;6.35;3.70;;;;;;;22.11;40.44;95928.84;5029096;28;20123;-63
2022/10/28 09:53:52;;;;;;;6.55;3.90;;;;;;;23.61;41.09;96146.50;5046029;28;20048;-64
2022/10/28 09:56:18;;;;;;;;;;;;;;;23.77;40.98;96152.13;5014646;28;20202;-63
2022/10/28 09:58:46;;;;;;;22.23;8.40;;;;;;;22.20;40.71;95898.75;5046088;28;20011;-64
2022/10/28 10:01:12;;;;;;;16.95;7.65;;;;;;;24.02;38.14;96146.59;5028224;28;20361;-62
2022/10/28 10:03:38;;;;;;;21.10;8.32;;;;;;;24.08;37.66;96150.13;5047011;28;20048;-63
2022/10/28 10:06:37;;;;;;;20.52;8.20;;;;;;;24.00;37.79;96143.59;5061671;28;20056;-63
2022/10/28 10:09:02;;;;;;;16.50;8.10;;;;;;;23.86;36.92;96100.84;5016822;28;20063;-63
2022/10/28 10:11:33;;;;;;;16.23;8.77;;;;;;;22.46;36.63;95900.25;5063851;28;20048;-63
2022/10/28 10:14:01;;;;;;;18.38;8.38;;;;;;;24.19;36.52;96138.53;5062297;28;20102;-63
2022/10/28 10:16:44;;;;;;;16.58;8.10;;;;;;;24.16;37.34;96134.78;5029409;28;20043;-62
2022/10/28 10:19:10;;;;;;;15.50;7.70;;;;;;;23.86;36.40;96088.47;5032111;28;20127;-62
2022/10/28 10:21:43;;;;;;;15.70;7.25;;;;;;;23.53;36.94;96022.75;5045831;28;20044;-61
2022/10/28 10:24:27;;;;;;;15.23;6.53;;;;;;;23.77;37.56;96129.56;5029229;28;20049;-62
2022/10/28 10:26:53;;;;;;;11.82;5.70;;;;;;;23.91;37.88;96124.69;5062527;28;20125;-64
2022/10/28 10:29:18;;;;;;;13.50;6.57;;;;;;;24.03;37.59;96082.59;5025113;28;20040;-62
2022/10/28 10:31:44;;;;;;;13.68;6.05;;;;;;;24.47;38.00;96153.84;5027962;28;20106;-64
2022/10/28 10:34:23;;;;;;;12.57;6.20;;;;;;;24.41;38.47;96114.84;5028371;28;20471;-64
2022/10/28 10:36:49;;;;;;;9.60;5.07;;;;;;;24.69;37.25;96121.16;5043643;28;20086;-67
2022/10/28 10:39:25;;;;;;;10.95;4.72;;;;;;;24.59;37.33;96117.16;5027606;28;20048;-61
2022/10/28 10:41:50;;;;;;;10.35;5.40;;;;;;;24.67;37.16;96118.19;5028603;28;20071;-63
2022/10/28 10:44:22;;;;;;;9.90;5.20;;;;;;;23.42;37.12;95949.06;5042327;28;20075;-66
2022/10/28 10:46:52;;;;;;;11.27;5.30;;;;;;;24.27;37.58;96069.31;5062857;28;20033;-66
2022/10/28 10:49:17;;;;;;;6.80;3.78;;;;;;;24.92;34.29;96099.63;5043025;28;20079;-67
2022/10/28 10:51:52;;;;;;;6.50;3.30;;;;;;;25.05;34.02;96102.69;5067774;28;20428;-63
2022/10/28 10:54:18;;;;;;;8.02;4.57;;;;;;;24.91;37.16;96106.31;5044086;28;20039;-63
2022/10/28 10:56:43;;;;;;;7.57;4.30;;;;;;;24.96;37.01;96100.16;5043849;28;20433;-64
2022/10/28 10:59:21;;;;;;;10.52;4.28;;;;;;;25.03;35.02;96099.69;5062251;28;20135;-66
2022/10/28 11:01:46;;;;;;;9.57;4.10;;;;;;;25.05;35.59;96089.03;5044461;28;20504;-63
2022/10/28 11:04:17;;;;;;;8.40;4.40;;;;;;;25.13;36.68;96090.03;5046157;28;20039;-64
2022/10/28 11:06:42;;;;;;;8.48;3.97;;;;;;;25.14;36.59;96101.69;5028101;28;20524;-65
2022/10/28 11:09:37;;;;;;;7.68;3.80;;;;;;;25.18;36.38;96081.06;5031969;28;20048;-63
2022/10/28 11:12:25;;;;;;;7.63;3.97;;;;;;;24.98;36.63;96100.41;5052856;28;20040;-65
2022/10/28 11:14:58;;;;;;;6.68;3.55;;;;;;;25.17;35.56;96073.38;5070575;28;20041;-65
2022/10/28 11:17:31;;;;;;;5.78;3.53;;;;;;;25.17;35.95;96082.31;5049358;28;20043;-65
2022/10/28 11:19:58;;;;;;;7.10;3.38;;;;;;;25.23;35.63;96091.28;5048606;28;20036;-67
2022/10/28 11:22:46;;;;;;;8.48;3.20;;;;;;;25.36;34.93;96075.13;5032192;28;20053;-65
2022/10/28 11:25:27;;;;;;;6.18;3.28;;;;;;;25.29;34.96;96072.13;5031440;28;20040;-65
2022/10/28 11:28:16;;;;;;;5.85;3.00;;;;;;;25.07;35.03;96070.13;5065611;28;20047;-65
2022/10/28 11:31:04;;;;;;;5.60;3.13;;;;;;;24.71;34.94;96036.72;5066884;28;20045;-65
2022/10/28 11:34:01;;;;;;;3.67;2.63;;;;;;;24.87;35.19;96067.59;5066037;28;20108;-64
2022/10/28 11:36:50;;;;;;;4.47;2.50;;;;;;;24.77;35.39;96029.28;5065556;28;20093;-62
2022/10/28 11:39:19;;;;;;;4.45;2.47;;;;;;;25.07;35.00;96058.47;5018786;28;20110;-65
2022/10/28 11:41:53;;;;;;;3.65;2.67;;;;;;;25.04;34.99;96054.72;5064919;28;20094;-66
2022/10/28 11:44:37;;;;;;;4.45;2.42;;;;;;;25.09;35.12;96061.44;5034672;28;20077;-66
2022/10/28 11:47:19;;;;;;;3.38;2.50;;;;;;;22.42;34.61;95664.97;5065946;28;20075;-66